createdAt,value
2023-01-03T00:02:22.195Z,99312.61
2023-01-03T00:04:50.260Z,99309.37
2023-01-03T00:07:33.820Z,99313.77
2023-01-03T00:10:04.979Z,99315.16
2023-01-03T00:12:33.744Z,99311.71
2023-01-03T00:15:01.546Z,99322.66
2023-01-03T00:17:29.432Z,99332.18
2023-01-03T00:19:57.135Z,99331.12
2023-01-03T00:22:24.943Z,99335.47
2023-01-03T00:24:53.215Z,99336.16
2023-01-03T00:27:20.869Z,99345.12
2023-01-03T00:29:48.609Z,99352.73
2023-01-03T00:32:16.347Z,99359.00
2023-01-03T00:34:45.484Z,99358.10
2023-01-03T00:37:14.433Z,99361.83
2023-01-03T00:39:42.284Z,99367.77
2023-01-03T00:42:09.975Z,99365.33
2023-01-03T00:44:37.688Z,99370.16
2023-01-03T00:47:05.398Z,99373.73
2023-01-03T00:49:33.087Z,99374.64
2023-01-03T00:52:00.682Z,99373.90
2023-01-03T00:54:28.335Z,99371.73
2023-01-03T00:56:56.133Z,99375.45
2023-01-03T00:59:23.847Z,99371.68
2023-01-03T01:01:55.064Z,99374.10
2023-01-03T01:04:28.651Z,99383.17
2023-01-03T01:07:03.154Z,99383.33
2023-01-03T01:09:33.743Z,99391.96
2023-01-03T01:12:01.794Z,99407.27
2023-01-03T01:14:30.976Z,99412.90
2023-01-03T01:17:03.206Z,99416.08
2023-01-03T01:19:35.456Z,99418.37
2023-01-03T01:22:03.481Z,99424.53
2023-01-03T01:24:31.118Z,99434.64
2023-01-03T01:26:59.202Z,99438.27
2023-01-03T01:29:26.987Z,99443.10
2023-01-03T01:31:55.075Z,99449.21
2023-01-03T01:34:22.846Z,99447.31
2023-01-03T01:36:50.590Z,99449.33
2023-01-03T01:39:21.078Z,99452.84
2023-01-03T01:42:12.664Z,99452.39
2023-01-03T01:44:46.244Z,99454.55
2023-01-03T01:47:45.411Z,99449.41
2023-01-03T01:50:25.982Z,99445.54
2023-01-03T01:53:19.120Z,99442.73
2023-01-03T01:55:52.868Z,99441.48
2023-01-03T01:58:22.731Z,99438.42
2023-01-03T02:00:50.437Z,99438.15
2023-01-03T02:03:18.186Z,99433.71
2023-01-03T02:05:49.165Z,99438.64
2023-01-03T02:08:16.957Z,99444.95
2023-01-03T02:11:01.133Z,99445.02
2023-01-03T02:13:50.282Z,99448.95
2023-01-03T02:16:37.019Z,99447.92
2023-01-03T02:19:20.138Z,99448.43
2023-01-03T02:21:56.844Z,99454.83
2023-01-03T02:24:39.678Z,99449.89
2023-01-03T02:27:46.075Z,99453.04
2023-01-03T02:30:36.909Z,99450.88
2023-01-03T02:33:29.319Z,99452.78
2023-01-03T02:36:08.590Z,99457.75
2023-01-03T02:39:16.141Z,99465.69
2023-01-03T02:42:14.059Z,99476.89
2023-01-03T02:44:53.317Z,99480.05
2023-01-03T02:47:23.119Z,99486.88
2023-01-03T02:49:52.878Z,99487.09
2023-01-03T02:52:24.577Z,99490.80
2023-01-03T02:55:03.248Z,99496.17
2023-01-03T02:57:53.888Z,99501.91
2023-01-03T03:00:23.955Z,99512.52
2023-01-03T03:02:58.472Z,99514.94
2023-01-03T03:05:31.852Z,99517.42
2023-01-03T03:08:00.317Z,99513.16
2023-01-03T03:10:47.061Z,99511.21
2023-01-03T03:13:36.815Z,99513.92
2023-01-03T03:16:09.682Z,99518.89
2023-01-03T03:18:45.368Z,99515.71
2023-01-03T03:21:34.193Z,99518.90
2023-01-03T03:24:27.298Z,99526.77
2023-01-03T03:26:56.393Z,99529.66
2023-01-03T03:29:27.643Z,99532.05
2023-01-03T03:31:56.207Z,99531.10
2023-01-03T03:34:26.701Z,99536.14
2023-01-03T03:37:04.038Z,99543.16
2023-01-03T03:39:51.549Z,99544.70
2023-01-03T03:42:42.336Z,99550.07
2023-01-03T03:45:18.764Z,99555.70
2023-01-03T03:47:58.874Z,99559.45
2023-01-03T03:50:34.684Z,99565.04
2023-01-03T03:53:05.798Z,99575.05
2023-01-03T03:55:43.525Z,99575.56
2023-01-03T03:58:21.625Z,99579.80
2023-01-03T04:00:51.500Z,99583.70
2023-01-03T04:03:20.437Z,99576.47
2023-01-03T04:05:50.852Z,99581.16
2023-01-03T04:08:18.593Z,99583.94
2023-01-03T04:10:46.339Z,99586.11
2023-01-03T04:13:14.100Z,99584.73
2023-01-03T04:15:41.876Z,99590.59
2023-01-03T04:18:09.578Z,99594.02
2023-01-03T04:20:37.297Z,99593.67
2023-01-03T04:23:04.995Z,99598.61
2023-01-03T04:25:34.741Z,99604.10
2023-01-03T04:28:02.394Z,99612.20
2023-01-03T04:30:30.116Z,99619.72
2023-01-03T04:32:57.827Z,99622.42
2023-01-03T04:35:25.520Z,99620.52
2023-01-03T04:37:53.212Z,99625.06
2023-01-03T04:40:20.875Z,99631.98
2023-01-03T04:43:07.031Z,99634.59
2023-01-03T04:45:35.480Z,99635.60
2023-01-03T04:48:03.303Z,99630.84
2023-01-03T04:50:31.247Z,99636.89
2023-01-03T04:52:59.206Z,99633.98
2023-01-03T04:55:26.897Z,99631.03
2023-01-03T04:57:54.695Z,99634.64
2023-01-03T05:00:22.454Z,99642.45
2023-01-03T05:02:50.111Z,99643.23
2023-01-03T05:05:18.095Z,99645.41
2023-01-03T05:07:45.722Z,99648.27
2023-01-03T05:10:13.344Z,99656.55
2023-01-03T05:12:41.152Z,99658.14
2023-01-03T05:15:09.399Z,99661.55
2023-01-03T05:17:37.028Z,99660.00
2023-01-03T05:20:24.107Z,99661.23
2023-01-03T05:23:10.759Z,99669.58
2023-01-03T05:25:50.723Z,99673.66
2023-01-03T05:28:19.431Z,99670.54
2023-01-03T05:30:47.130Z,99670.27
2023-01-03T05:33:14.859Z,99671.66
2023-01-03T05:35:46.999Z,99671.36
2023-01-03T05:38:14.899Z,99674.44
2023-01-03T05:40:43.231Z,99672.03
2023-01-03T05:43:11.321Z,99674.08
2023-01-03T05:45:39.580Z,99679.81
2023-01-03T05:48:08.645Z,99682.77
2023-01-03T05:50:36.386Z,99685.64
2023-01-03T05:53:04.763Z,99691.92
2023-01-03T05:55:32.421Z,99691.57
2023-01-03T05:58:00.130Z,99693.82
2023-01-03T06:00:28.669Z,99697.48
2023-01-03T06:02:56.393Z,99696.01
2023-01-03T06:05:24.380Z,99700.44
2023-01-03T06:07:52.116Z,99704.55
2023-01-03T06:10:32.192Z,99705.08
2023-01-03T06:13:00.149Z,99701.41
2023-01-03T06:15:27.806Z,99705.14
2023-01-03T06:17:57.706Z,99712.45
2023-01-03T06:20:27.208Z,99711.35
2023-01-03T06:22:55.519Z,99716.81
2023-01-03T06:25:23.632Z,99721.36
2023-01-03T06:27:51.355Z,99721.40
2023-01-03T06:30:19.229Z,99722.00
2023-01-03T06:32:46.948Z,99732.68
2023-01-03T06:35:15.197Z,99735.06
2023-01-03T06:37:42.960Z,99745.06
2023-01-03T06:40:11.053Z,99740.71
2023-01-03T06:42:39.529Z,99742.44
2023-01-03T06:45:27.005Z,99752.98
2023-01-03T06:48:13.495Z,99756.06
2023-01-03T06:51:01.147Z,99759.21
2023-01-03T06:53:35.194Z,99762.10
2023-01-03T06:56:03.719Z,99770.13
2023-01-03T06:58:31.622Z,99771.65
2023-01-03T07:01:02.724Z,99776.86
2023-01-03T07:03:33.840Z,99775.80
2023-01-03T07:06:01.591Z,99776.83
2023-01-03T07:08:29.338Z,99780.70
2023-01-03T07:10:57.013Z,99777.36
2023-01-03T07:13:43.489Z,99776.86
2023-01-03T07:16:18.244Z,99780.77
2023-01-03T07:18:54.700Z,99789.40
2023-01-03T07:21:28.840Z,99790.52
2023-01-03T07:23:58.137Z,99791.91
2023-01-03T07:26:25.934Z,99798.97
2023-01-03T07:28:53.915Z,99800.44
2023-01-03T07:31:21.631Z,99799.45
2023-01-03T07:33:49.783Z,99801.80
2023-01-03T07:36:17.593Z,99806.07
2023-01-03T07:38:46.062Z,99812.90
2023-01-03T07:41:14.979Z,99815.13
2023-01-03T07:43:45.807Z,99815.34
2023-01-03T07:46:24.792Z,99818.23
2023-01-03T07:48:55.356Z,99825.91
2023-01-03T07:51:23.196Z,99834.09
2023-01-03T07:53:52.748Z,99831.98
2023-01-03T07:56:22.040Z,99837.77
2023-01-03T07:58:51.962Z,99842.94
2023-01-03T08:01:22.897Z,99845.61
2023-01-03T08:03:51.354Z,99849.00
2023-01-03T08:06:22.003Z,99852.42
2023-01-03T08:09:09.184Z,99859.09
2023-01-03T08:11:56.396Z,99861.35
2023-01-03T08:14:26.654Z,99865.38
2023-01-03T08:16:55.496Z,99860.33
2023-01-03T08:19:24.463Z,99864.60
2023-01-03T08:21:52.817Z,99871.81
2023-01-03T08:24:20.621Z,99875.33
2023-01-03T08:26:48.607Z,99874.62
2023-01-03T08:29:16.613Z,99873.92
2023-01-03T08:31:47.821Z,99876.10
2023-01-03T08:34:19.703Z,99879.16
2023-01-03T08:36:53.051Z,99883.73
2023-01-03T08:39:23.655Z,99890.53
2023-01-03T08:42:01.882Z,99891.48
2023-01-03T08:44:29.603Z,99891.08
2023-01-03T08:46:59.224Z,99892.56
2023-01-03T08:49:27.012Z,99898.63
2023-01-03T08:51:54.786Z,99896.02
2023-01-03T08:54:22.501Z,99901.00
2023-01-03T08:56:50.207Z,99906.08
2023-01-03T08:59:17.951Z,99912.30
2023-01-03T09:01:45.877Z,99915.19
2023-01-03T09:04:13.795Z,99915.70
2023-01-03T09:06:41.695Z,99918.41
2023-01-03T09:09:09.940Z,99921.92
2023-01-03T09:11:37.637Z,99921.71
2023-01-03T09:14:05.417Z,99920.71
2023-01-03T09:16:33.249Z,99924.35
2023-01-03T09:19:02.519Z,99925.38
2023-01-03T09:21:30.821Z,99925.42
2023-01-03T09:24:01.443Z,99921.27
2023-01-03T09:26:30.456Z,99927.77
2023-01-03T09:28:58.144Z,99930.10
2023-01-03T09:31:25.927Z,99928.40
2023-01-03T09:33:53.743Z,99934.98
2023-01-03T09:36:21.357Z,99934.58
2023-01-03T09:38:49.015Z,99939.43
2023-01-03T09:41:23.693Z,99936.80
2023-01-03T09:43:57.253Z,99941.35
2023-01-03T09:46:26.014Z,99940.36
2023-01-03T09:48:55.305Z,99941.29
2023-01-03T09:51:49.599Z,99938.95
2023-01-03T09:54:48.622Z,99939.32
2023-01-03T09:57:44.940Z,99943.83
2023-01-03T10:00:50.926Z,99945.87
2023-01-03T10:03:50.363Z,99952.81
2023-01-03T10:06:38.102Z,99953.41
2023-01-03T10:09:30.945Z,99958.81
2023-01-03T10:12:15.065Z,99955.20
2023-01-03T10:15:07.616Z,99960.43
2023-01-03T10:17:49.942Z,99963.12
2023-01-03T10:20:36.115Z,99955.69
2023-01-03T10:23:05.922Z,99958.69
2023-01-03T10:25:33.777Z,99958.76
2023-01-03T10:28:10.306Z,99952.27
2023-01-03T10:31:02.257Z,99951.52
2023-01-03T10:33:45.349Z,99954.19
2023-01-03T10:36:15.087Z,99950.16
2023-01-03T10:38:51.488Z,99956.46
2023-01-03T10:41:52.362Z,99958.63
2023-01-03T10:44:25.873Z,99958.55
2023-01-03T10:46:56.184Z,99959.41
2023-01-03T10:49:29.267Z,99961.66
2023-01-03T10:52:01.070Z,99963.16
2023-01-03T10:54:43.764Z,99958.04
2023-01-03T10:57:38.200Z,99956.21
2023-01-03T11:00:33.415Z,99956.61
2023-01-03T11:03:09.796Z,99958.98
2023-01-03T11:05:40.266Z,99954.98
2023-01-03T11:08:37.227Z,99953.86
2023-01-03T11:11:04.944Z,99954.83
2023-01-03T11:13:37.472Z,99956.17
2023-01-03T11:16:17.173Z,99958.91
2023-01-03T11:19:00.376Z,99960.37
2023-01-03T11:21:53.223Z,99960.73
2023-01-03T11:24:50.420Z,99958.55
2023-01-03T11:27:42.772Z,99956.48
2023-01-03T11:30:18.608Z,99957.83
2023-01-03T11:33:10.246Z,99957.42
2023-01-03T11:35:50.688Z,99960.60
2023-01-03T11:38:36.578Z,99963.73
2023-01-03T11:41:13.052Z,99962.69
2023-01-03T11:43:56.640Z,99967.14
2023-01-03T11:46:34.554Z,99971.34
2023-01-03T11:49:39.122Z,99974.08
2023-01-03T11:52:22.350Z,99976.38
2023-01-03T11:55:13.409Z,99974.75
2023-01-03T11:57:51.341Z,99973.59
2023-01-03T12:00:38.161Z,99971.61
2023-01-03T12:03:33.836Z,99977.59
2023-01-03T12:06:28.585Z,99976.51
2023-01-03T12:09:22.730Z,99981.27
2023-01-03T12:12:25.809Z,99985.61
2023-01-03T12:15:34.492Z,99983.54
2023-01-03T12:18:08.922Z,99981.41
2023-01-03T12:20:39.287Z,99982.19
2023-01-03T12:23:27.731Z,99982.70
2023-01-03T12:25:57.766Z,99984.41
2023-01-03T12:28:29.824Z,99986.14
2023-01-03T12:31:01.779Z,99984.88
2023-01-03T12:33:35.568Z,99982.92
2023-01-03T12:36:14.627Z,99981.64
2023-01-03T12:38:45.986Z,99977.31
2023-01-03T12:41:25.660Z,99975.07
2023-01-03T12:44:02.165Z,99967.25
2023-01-03T12:46:38.632Z,99966.27
2023-01-03T12:49:12.655Z,99962.33
2023-01-03T12:51:40.397Z,99959.04
2023-01-03T12:54:26.122Z,99959.48
2023-01-03T12:57:02.374Z,99956.80
2023-01-03T12:59:45.382Z,99955.40
2023-01-03T13:02:22.488Z,99955.46
2023-01-03T13:04:53.993Z,99955.08
2023-01-03T13:07:26.392Z,99955.98
2023-01-03T13:10:25.327Z,99955.70
2023-01-03T13:12:53.703Z,99955.96
2023-01-03T13:15:36.745Z,99960.73
2023-01-03T13:18:23.463Z,99959.28
2023-01-03T13:20:52.912Z,99964.05
2023-01-03T13:23:37.896Z,99967.59
2023-01-03T13:26:05.647Z,99969.74
2023-01-03T13:28:39.702Z,99973.02
2023-01-03T13:31:19.352Z,99975.89
2023-01-03T13:33:55.941Z,99979.05
2023-01-03T13:36:24.841Z,99980.89
2023-01-03T13:38:52.505Z,99985.00
2023-01-03T13:41:33.057Z,99982.35
2023-01-03T13:44:19.583Z,99982.66
2023-01-03T13:46:48.192Z,99983.58
2023-01-03T13:49:23.288Z,99989.06
2023-01-03T13:51:56.480Z,99990.96
2023-01-03T13:54:56.007Z,99994.05
2023-01-03T13:57:53.576Z,99994.64
2023-01-03T14:00:22.550Z,99997.30
2023-01-03T14:03:13.599Z,100005.22
2023-01-03T14:05:56.698Z,100006.88
2023-01-03T14:09:05.909Z,100011.48
2023-01-03T14:11:55.265Z,100015.61
2023-01-03T14:14:27.845Z,100016.06
2023-01-03T14:16:57.759Z,100026.27
2023-01-03T14:19:32.251Z,100025.80
2023-01-03T14:22:27.924Z,100024.13
2023-01-03T14:24:57.366Z,100028.19
2023-01-03T14:27:35.704Z,100029.67
2023-01-03T14:30:05.156Z,100033.90
2023-01-03T14:32:35.955Z,100038.63
2023-01-03T14:35:04.474Z,100038.70
2023-01-03T14:37:34.938Z,100039.30
2023-01-03T14:40:07.669Z,100042.45
2023-01-03T14:42:35.379Z,100039.44
2023-01-03T14:45:06.531Z,100041.88
2023-01-03T14:47:37.726Z,100044.73
2023-01-03T14:50:07.755Z,100045.88
2023-01-03T14:52:39.785Z,100052.62
2023-01-03T14:55:19.143Z,100049.75
2023-01-03T14:57:48.845Z,100053.59
2023-01-03T15:00:24.130Z,100055.06
2023-01-03T15:02:57.094Z,100058.92
2023-01-03T15:05:30.029Z,100067.15
2023-01-03T15:08:19.931Z,100069.81
2023-01-03T15:11:05.906Z,100072.20
2023-01-03T15:13:42.122Z,100074.77
2023-01-03T15:16:30.970Z,100075.34
2023-01-03T15:19:14.771Z,100080.88
2023-01-03T15:21:42.707Z,100085.87
2023-01-03T15:24:19.021Z,100090.33
2023-01-03T15:26:48.684Z,100092.71
2023-01-03T15:29:19.601Z,100092.16
2023-01-03T15:31:53.964Z,100095.08
2023-01-03T15:34:33.915Z,100098.30
2023-01-03T15:37:15.786Z,100095.53
2023-01-03T15:39:54.555Z,100097.00
2023-01-03T15:42:56.231Z,100091.61
2023-01-03T15:45:36.753Z,100095.80
2023-01-03T15:48:13.899Z,100099.67
2023-01-03T15:50:44.577Z,100096.16
2023-01-03T15:53:41.225Z,100102.45
2023-01-03T15:56:20.970Z,100107.67
2023-01-03T15:58:50.605Z,100110.25
2023-01-03T16:01:19.297Z,100115.01
2023-01-03T16:03:48.689Z,100116.45
2023-01-03T16:06:17.074Z,100119.46
2023-01-03T16:08:45.354Z,100113.10
2023-01-03T16:11:19.867Z,100115.52
2023-01-03T16:13:54.489Z,100122.05
2023-01-03T16:16:37.622Z,100129.52
2023-01-03T16:19:06.468Z,100126.27
2023-01-03T16:21:34.393Z,100130.05
2023-01-03T16:24:02.936Z,100130.84
2023-01-03T16:26:30.690Z,100135.48
2023-01-03T16:28:59.489Z,100131.20
2023-01-03T16:31:32.209Z,100132.11
2023-01-03T16:34:00.465Z,100131.27
2023-01-03T16:36:37.155Z,100130.45
2023-01-03T16:39:07.292Z,100125.74
2023-01-03T16:41:34.935Z,100127.89
2023-01-03T16:44:02.571Z,100130.08
2023-01-03T16:46:30.638Z,100135.52
2023-01-03T16:48:58.930Z,100136.24
2023-01-03T16:51:29.651Z,100138.66
2023-01-03T16:53:58.427Z,100134.83
2023-01-03T16:56:26.855Z,100139.12
2023-01-03T16:58:54.604Z,100138.86
2023-01-03T17:01:22.708Z,100141.95
2023-01-03T17:03:50.860Z,100144.48
2023-01-03T17:06:37.829Z,100144.76
2023-01-03T17:09:19.284Z,100149.03
2023-01-03T17:11:47.701Z,100153.20
2023-01-03T17:14:20.495Z,100154.84
2023-01-03T17:16:49.326Z,100157.27
2023-01-03T17:20:02.729Z,100155.07
2023-01-03T17:22:17.599Z,100156.61
2023-01-03T17:24:46.330Z,100161.45
2023-01-03T17:27:17.217Z,100159.63
2023-01-03T17:29:46.626Z,100161.67
2023-01-03T17:32:20.234Z,100161.31
2023-01-03T17:34:48.311Z,100158.45
2023-01-03T17:37:19.223Z,100158.73
2023-01-03T17:39:53.144Z,100156.96
2023-01-03T17:42:20.882Z,100157.42
2023-01-03T17:45:08.852Z,100161.58
2023-01-03T17:47:59.042Z,100167.36
2023-01-03T17:50:28.105Z,100167.13
2023-01-03T17:52:56.611Z,100174.77
2023-01-03T17:55:28.348Z,100176.38
2023-01-03T17:57:56.982Z,100178.86
2023-01-03T18:00:27.307Z,100182.58
2023-01-03T18:02:55.772Z,100187.98
2023-01-03T18:05:28.405Z,100185.98
2023-01-03T18:07:58.783Z,100189.73
2023-01-03T18:10:38.722Z,100185.83
2023-01-03T18:13:26.699Z,100185.70
2023-01-03T18:15:54.938Z,100186.88
2023-01-03T18:18:24.432Z,100185.50
2023-01-03T18:20:52.570Z,100184.08
2023-01-03T18:23:24.957Z,100185.53
2023-01-03T18:25:53.028Z,100185.48
2023-01-03T18:28:24.621Z,100184.16
2023-01-03T18:30:53.482Z,100185.41
2023-01-03T18:33:21.797Z,100184.27
2023-01-03T18:35:50.202Z,100188.05
2023-01-03T18:38:26.869Z,100195.25
2023-01-03T18:41:00.715Z,100193.84
2023-01-03T18:43:33.108Z,100197.11
2023-01-03T18:46:01.008Z,100194.33
2023-01-03T18:48:28.894Z,100197.30
2023-01-03T18:50:59.302Z,100198.98
2023-01-03T18:53:31.136Z,100204.86
2023-01-03T18:56:00.015Z,100205.63
2023-01-03T18:58:34.330Z,100205.11
2023-01-03T19:01:02.969Z,100202.30
2023-01-03T19:03:32.217Z,100206.85
2023-01-03T19:06:01.254Z,100205.34
2023-01-03T19:08:31.533Z,100210.61
2023-01-03T19:11:05.224Z,100212.26
2023-01-03T19:13:50.273Z,100208.81
2023-01-03T19:16:26.569Z,100211.90
2023-01-03T19:18:54.806Z,100210.33
2023-01-03T19:21:23.382Z,100208.09
2023-01-03T19:24:23.197Z,100212.38
2023-01-03T19:26:56.655Z,100211.27
2023-01-03T19:29:28.492Z,100211.13
2023-01-03T19:31:57.545Z,100216.88
2023-01-03T19:34:26.959Z,100217.66
2023-01-03T19:36:54.942Z,100215.60
2023-01-03T19:39:25.759Z,100219.30
2023-01-03T19:42:14.912Z,100220.49
2023-01-03T19:44:43.144Z,100221.71
2023-01-03T19:47:16.582Z,100218.73
2023-01-03T19:49:47.319Z,100219.50
2023-01-03T19:52:18.338Z,100217.18
2023-01-03T19:54:46.143Z,100217.74
2023-01-03T19:57:21.409Z,100213.94
2023-01-03T19:59:52.924Z,100211.95
2023-01-03T20:02:32.704Z,100209.80
2023-01-03T20:05:01.059Z,100211.84
2023-01-03T20:07:28.914Z,100212.60
2023-01-03T20:09:56.630Z,100210.83
2023-01-03T20:12:26.073Z,100214.27
2023-01-03T20:14:55.058Z,100219.04
2023-01-03T20:17:24.894Z,100220.27
2023-01-03T20:19:53.404Z,100218.48
2023-01-03T20:23:02.656Z,100222.33
2023-01-03T20:25:27.639Z,100224.76
2023-01-03T20:27:56.605Z,100222.99
2023-01-03T20:30:26.702Z,100217.31
2023-01-03T20:32:54.550Z,100216.25
2023-01-03T20:38:12.160Z,100218.75
2023-01-03T20:40:39.883Z,100218.29
2023-01-03T20:43:12.889Z,100219.12
2023-01-03T20:45:40.674Z,100220.59
2023-01-03T20:48:21.159Z,100225.31
2023-01-03T20:50:52.666Z,100228.00
2023-01-03T20:53:26.033Z,100227.69
2023-01-03T20:55:54.639Z,100228.95
2023-01-03T20:58:27.867Z,100227.75
2023-01-03T21:01:04.000Z,100229.55
2023-01-03T21:03:34.441Z,100238.66
2023-01-03T21:06:23.527Z,100235.10
2023-01-03T21:08:54.008Z,100239.34
2023-01-03T21:11:28.881Z,100238.94
2023-01-03T21:13:58.319Z,100242.11
2023-01-03T21:16:31.095Z,100234.48
2023-01-03T21:19:20.027Z,100237.13
2023-01-03T21:21:50.595Z,100237.19
2023-01-03T21:24:20.310Z,100236.02
2023-01-03T21:26:48.344Z,100239.85
2023-01-03T21:29:16.100Z,100243.36
2023-01-03T21:31:44.191Z,100245.82
2023-01-03T21:34:20.068Z,100246.00
2023-01-03T21:36:47.825Z,100248.07
2023-01-03T21:39:15.611Z,100248.61
2023-01-03T21:42:02.224Z,100251.04
2023-01-03T21:44:29.865Z,100252.69
2023-01-03T21:46:57.540Z,100257.05
2023-01-03T21:49:25.163Z,100256.52
2023-01-03T21:51:52.813Z,100263.79
2023-01-03T21:54:20.538Z,100267.24
2023-01-03T21:56:48.191Z,100258.46
2023-01-03T21:59:16.467Z,100259.12
2023-01-03T22:02:03.725Z,100263.42
2023-01-03T22:04:32.218Z,100271.55
2023-01-03T22:07:02.780Z,100280.25
2023-01-03T22:09:50.512Z,100279.48
2023-01-03T22:12:19.114Z,100277.52
2023-01-03T22:14:47.164Z,100273.67
2023-01-03T22:17:16.463Z,100273.37
2023-01-03T22:19:44.209Z,100269.88
2023-01-03T22:22:11.985Z,100265.60
2023-01-03T22:24:39.715Z,100263.64
2023-01-03T22:27:07.568Z,100261.80
2023-01-03T22:29:35.250Z,100260.81
2023-01-03T22:32:03.026Z,100265.33
2023-01-03T22:34:30.847Z,100259.27
2023-01-03T22:36:58.481Z,100260.30
2023-01-03T22:39:26.156Z,100261.80
2023-01-03T22:41:53.823Z,100268.55
2023-01-03T22:44:21.465Z,100271.14
2023-01-03T22:46:49.235Z,100269.86
2023-01-03T22:49:16.919Z,100272.03
2023-01-03T22:51:44.558Z,100276.30
2023-01-03T22:54:12.188Z,100279.67
2023-01-03T22:56:39.918Z,100279.14
2023-01-03T22:59:07.837Z,100278.98
2023-01-03T23:01:35.702Z,100276.86
2023-01-03T23:04:06.474Z,100272.02
2023-01-03T23:06:35.151Z,100262.59
2023-01-03T23:09:03.627Z,100261.52
2023-01-03T23:11:50.980Z,100255.65
2023-01-03T23:14:20.719Z,100258.77
2023-01-03T23:16:50.904Z,100255.16
2023-01-03T23:19:21.242Z,100257.64
2023-01-03T23:21:49.231Z,100256.27
2023-01-03T23:24:19.534Z,100250.16
2023-01-03T23:26:47.186Z,100251.20
2023-01-03T23:29:15.350Z,100251.59
2023-01-03T23:31:43.770Z,100255.24
2023-01-03T23:34:12.183Z,100256.34
2023-01-03T23:36:43.123Z,100253.28
2023-01-03T23:39:13.124Z,100251.49
2023-01-03T23:41:41.064Z,100254.81
2023-01-03T23:44:09.084Z,100252.58
2023-01-03T23:46:36.910Z,100246.73
2023-01-03T23:49:04.709Z,100245.09
2023-01-03T23:51:32.471Z,100238.95
2023-01-03T23:54:00.253Z,100239.89
2023-01-03T23:56:27.991Z,100242.28
2023-01-03T23:58:55.606Z,100240.54
